Fernando Pessoa — CSKQ — position and weather

sailwx.info

Track history (hours):
 
Tides and Currents Weather Stations Pressure Air Temp Water Temp Dewpoint Dewpoint Depression Visibility Wind Speed Wind Dir Waves Ship Positions

Fernando Pessoa

Last reported at 2017-Feb-25 13:33 UTC. Time now 2017-Feb-25 13:49 UTC.
Position N 38°39' W 009°05'.

Length 49 m.

MMSI: 263701470.

Date/timePositionNaut miles runAvg speedWind from/ knotsBaromVisibWave heightAir tempDewpointWater temp
2017-Feb-25 13:33N 38°39' W 009°05'2 1.5
2017-Feb-25 12:33N 38°40' W 009°06'0 0.2
2017-Feb-25 11:34N 38°40' W 009°06'0 0.2
2017-Feb-25 10:34N 38°40' W 009°06'0 0.3
2017-Feb-25 09:33N 38°40' W 009°06'0 0.0
2017-Feb-25 08:34N 38°40' W 009°06'0 0.2
2017-Feb-25 07:34N 38°40' W 009°06'1 1.3
2017-Feb-25 06:34N 38°41' W 009°08'2 1.7
2017-Feb-25 05:34N 38°42' W 009°08'4 4.1
2017-Feb-25 04:33N 38°39' W 009°05'0 0.0
2017-Feb-25 03:33N 38°39' W 009°05'0 0.0
2017-Feb-25 02:33N 38°39' W 009°05'0 0.2
2017-Feb-25 01:33N 38°39' W 009°05'0 0.1
2017-Feb-25 00:33N 38°39' W 009°05'0 0.0
2017-Feb-24 23:33N 38°39' W 009°05'1 1.2
2017-Feb-24 22:34N 38°40' W 009°06'0 0.1
2017-Feb-24 21:34N 38°40' W 009°07'2 1.6
2017-Feb-24 20:33N 38°39' W 009°05'0 0.0
2017-Feb-24 19:33N 38°39' W 009°05'1 1.2
2017-Feb-24 18:33N 38°40' W 009°06'3 2.8
2017-Feb-24 17:33N 38°42' W 009°08'4 3.7
2017-Feb-24 16:33N 38°39' W 009°05'0 0.0
2017-Feb-24 12:11N 38°39' W 009°05'0 0.0
2017-Feb-24 11:34N 38°39' W 009°05'0 0.0
2017-Feb-24 10:33N 38°39' W 009°05'0 0.1
2017-Feb-24 09:33N 38°39' W 009°05'1 0.8
2017-Feb-24 08:33N 38°39' W 009°06'3 3.0
2017-Feb-24 07:33N 38°42' W 009°08'0 0.5
2017-Feb-24 06:34N 38°42' W 009°08'0 0.0
2017-Feb-24 05:33N 38°42' W 009°08'4 4.1
2017-Feb-24 04:33N 38°39' W 009°05'0 0.0
2017-Feb-24 03:33N 38°39' W 009°05'0 0.0
2017-Feb-24 02:33N 38°39' W 009°05'1 0.7
2017-Feb-24 01:34N 38°39' W 009°06'0 0.2
2017-Feb-24 00:33N 38°39' W 009°05'0 0.1
2017-Feb-23 23:33N 38°39' W 009°05'1 1.2
2017-Feb-23 22:33N 38°40' W 009°07'0 0.2
2017-Feb-23 21:34N 38°40' W 009°06'1 1.5
2017-Feb-23 20:33N 38°39' W 009°05'0 0.0
2017-Feb-23 19:33N 38°39' W 009°05'1 1.0
2017-Feb-23 18:33N 38°39' W 009°06'3 3.0
2017-Feb-23 17:33N 38°42' W 009°08'4 3.7
2017-Feb-23 16:33N 38°39' W 009°05'0 0.0
2017-Feb-23 13:33N 38°39' W 009°05'1 1.4
2017-Feb-23 12:34N 38°40' W 009°06'1 0.8
2017-Feb-23 11:33N 38°39' W 009°06'1 0.7
2017-Feb-23 10:33N 38°39' W 009°05'0 0.1
2017-Feb-23 09:34N 38°39' W 009°05'0 0.0
2017-Feb-23 08:34N 38°39' W 009°05'1 1.1
2017-Feb-23 07:33N 38°40' W 009°06'1 1.0
2017-Feb-23 06:33N 38°39' W 009°05'4 0.4
2017-Feb-22 20:33N 38°42' W 009°08'0 0.2
2017-Feb-22 19:33N 38°42' W 009°08'1 0.8
2017-Feb-22 18:34N 38°42' W 009°08'3 3.0
2017-Feb-22 17:33N 38°39' W 009°05'4 3.5
2017-Feb-22 16:33N 38°42' W 009°08'2 1.7
2017-Feb-22 15:34N 38°41' W 009°08'0 0.3
2017-Feb-22 14:33N 38°41' W 009°08'1 0.6
2017-Feb-22 13:34N 38°40' W 009°08'0 0.4
2017-Feb-22 12:33N 38°41' W 009°08'0 0.0
2017-Feb-22 11:34N 38°41' W 009°08'3 2.8
2017-Feb-22 10:33N 38°39' W 009°05'4 4.2
2017-Feb-22 09:34N 38°42' W 009°08'0 0.0
2017-Feb-22 08:33N 38°42' W 009°08'2 1.9
2017-Feb-22 07:34N 38°41' W 009°08'3 2.5
2017-Feb-22 06:32N 38°39' W 009°05'0 0.0
2017-Feb-21 21:26N 38°39' W 009°05'3 3.6
2017-Feb-21 20:34N 38°42' W 009°08'1 1.5
2017-Feb-21 19:34N 38°40' W 009°07'2 2.3
2017-Feb-21 18:33N 38°42' W 009°08'0 0.1
2017-Feb-21 17:33N 38°42' W 009°08'1 1.4
2017-Feb-21 16:34N 38°41' W 009°08'1 1.2
2017-Feb-21 15:33N 38°40' W 009°07'0 0.4
2017-Feb-21 14:33N 38°40' W 009°06'0 0.2
2017-Feb-21 13:34N 38°40' W 009°07'2 1.8
2017-Feb-21 12:33N 38°39' W 009°05'0 0.0
2017-Feb-21 11:33N 38°39' W 009°05'3 3.0
2017-Feb-21 10:33N 38°41' W 009°08'3 3.0
2017-Feb-21 09:33N 38°39' W 009°05'1 1.1
2017-Feb-21 08:33N 38°40' W 009°06'3 2.8
2017-Feb-21 07:33N 38°42' W 009°08'0 0.4
2017-Feb-21 06:34N 38°42' W 009°08'1 0.6
2017-Feb-21 05:33N 38°42' W 009°08'4 3.6
2017-Feb-21 04:33N 38°39' W 009°05'0 0.0
2017-Feb-21 03:33N 38°39' W 009°05'0 0.0
2017-Feb-21 02:33N 38°39' W 009°05'0 0.4
2017-Feb-21 01:33N 38°39' W 009°05'0 0.1
2017-Feb-21 00:33N 38°39' W 009°05'0 0.1
2017-Feb-20 23:33N 38°39' W 009°05'1 0.9
2017-Feb-20 22:34N 38°40' W 009°06'0 0.4
2017-Feb-20 21:33N 38°40' W 009°07'2 1.8
2017-Feb-20 20:34N 38°39' W 009°05'0 0.0
2017-Feb-20 19:33N 38°39' W 009°05'1 1.3
2017-Feb-20 18:33N 38°40' W 009°06'3 2.8
2017-Feb-20 17:33N 38°42' W 009°08'4 3.8
2017-Feb-20 16:33N 38°39' W 009°05'0 0.0
2017-Feb-20 15:33N 38°39' W 009°05'0 0.0
2017-Feb-20 14:32N 38°39' W 009°05'0 0.0
2017-Feb-20 13:33N 38°39' W 009°05'1 1.4
2017-Feb-20 12:34N 38°40' W 009°06'0 0.1
2017-Feb-20 11:33N 38°40' W 009°06'1 1.4
2017-Feb-20 10:33N 38°39' W 009°05'0 0.0
2017-Feb-20 09:33N 38°39' W 009°05'1 1.1
2017-Feb-20 08:34N 38°40' W 009°06'1 0.6
2017-Feb-20 07:33N 38°39' W 009°06'1 0.6
2017-Feb-20 06:33N 38°39' W 009°05'0 0.0
2017-Feb-19 11:28N 38°39' W 009°05'2 1.8
2017-Feb-19 10:33N 38°40' W 009°07'0 0.1
2017-Feb-19 09:34N 38°40' W 009°07'0 0.2
2017-Feb-19 08:33N 38°40' W 009°07'0 0.1
2017-Feb-19 07:33N 38°40' W 009°07'1 0.8
2017-Feb-19 06:33N 38°40' W 009°08'2 1.5
2017-Feb-19 05:33N 38°42' W 009°08'4 3.7
2017-Feb-19 04:33N 38°39' W 009°05'0 0.0
2017-Feb-19 03:33N 38°39' W 009°05'0 0.0
2017-Feb-19 02:33N 38°39' W 009°05'0 0.5
2017-Feb-19 01:33N 38°39' W 009°05'0 0.1
2017-Feb-19 00:33N 38°39' W 009°05'0 0.1
2017-Feb-18 23:33N 38°39' W 009°05'1 1.4
2017-Feb-18 22:33N 38°40' W 009°07'0 0.0
2017-Feb-18 21:34N 38°40' W 009°07'0 0.2
2017-Feb-18 20:33N 38°40' W 009°07'1 1.1
2017-Feb-18 19:33N 38°41' W 009°08'0 0.3
2017-Feb-18 18:34N 38°40' W 009°08'0 0.1
2017-Feb-18 17:34N 38°41' W 009°08'0 0.1
2017-Feb-18 16:33N 38°41' W 009°08'0 0.2
2017-Feb-18 15:34N 38°41' W 009°08'3 2.9
2017-Feb-18 14:33N 38°39' W 009°05'0 0.0
2017-Feb-18 13:33N 38°39' W 009°05'1 1.5
2017-Feb-18 12:34N 38°40' W 009°06'0 0.4
2017-Feb-18 11:33N 38°40' W 009°06'0 0.0
2017-Feb-18 10:33N 38°40' W 009°06'1 0.5
2017-Feb-18 09:33N 38°40' W 009°07'0 0.0
2017-Feb-18 08:34N 38°40' W 009°06'0 0.1
2017-Feb-18 07:34N 38°40' W 009°07'1 1.1
2017-Feb-18 06:34N 38°41' W 009°08'2 1.9
2017-Feb-18 05:34N 38°42' W 009°08'4 4.1
2017-Feb-18 04:33N 38°39' W 009°05'0 0.0
2017-Feb-18 03:33N 38°39' W 009°05'0 0.0
2017-Feb-18 02:34N 38°39' W 009°05'1 0.5
2017-Feb-18 01:33N 38°39' W 009°05'0 0.1
2017-Feb-18 00:33N 38°39' W 009°05'0 0.1
2017-Feb-17 23:34N 38°39' W 009°05'1 1.2
2017-Feb-17 22:33N 38°40' W 009°07'0 0.1
2017-Feb-17 21:34N 38°40' W 009°07'2 1.8
2017-Feb-17 20:33N 38°39' W 009°05'0 0.0
2017-Feb-17 19:33N 38°39' W 009°05'1 1.1
2017-Feb-17 18:33N 38°40' W 009°06'3 2.9
2017-Feb-17 17:34N 38°42' W 009°08'4 3.7
2017-Feb-17 16:33N 38°39' W 009°05'0 0.0
2017-Feb-17 15:33N 38°39' W 009°05'0 0.0
2017-Feb-17 14:31N 38°39' W 009°05'0 0.0
2017-Feb-17 13:33N 38°39' W 009°05'1 1.5
2017-Feb-17 12:34N 38°40' W 009°07'0 0.2
2017-Feb-17 11:33N 38°40' W 009°06'1 1.3
2017-Feb-17 10:33N 38°39' W 009°05'0 0.0
2017-Feb-17 09:33N 38°39' W 009°05'0 0.2
2017-Feb-17 08:33N 38°39' W 009°05'1 0.9
2017-Feb-17 07:33N 38°39' W 009°06'1 1.0
2017-Feb-17 06:33N 38°39' W 009°05'0 0.0
2017-Feb-16 21:18N 38°39' W 009°05'3 4.7
2017-Feb-16 20:33N 38°42' W 009°08'2 2.2
2017-Feb-16 19:34N 38°40' W 009°06'2 2.5
2017-Feb-16 18:33N 38°42' W 009°08'1 0.5
2017-Feb-16 17:34N 38°42' W 009°08'1 1.0
2017-Feb-16 16:33N 38°41' W 009°07'2 1.8
2017-Feb-16 15:33N 38°40' W 009°06'0 0.2
2017-Feb-16 14:33N 38°40' W 009°07'0 0.4
2017-Feb-16 13:34N 38°40' W 009°06'1 1.2
2017-Feb-16 12:33N 38°39' W 009°05'0 0.0
2017-Feb-16 11:33N 38°39' W 009°05'3 2.7
2017-Feb-16 10:34N 38°41' W 009°08'3 2.8
2017-Feb-16 09:34N 38°39' W 009°05'1 1.2
2017-Feb-16 08:34N 38°40' W 009°06'3 2.6
2017-Feb-16 07:33N 38°42' W 009°08'0 0.5
2017-Feb-16 06:34N 38°42' W 009°08'0 0.0
2017-Feb-16 05:33N 38°42' W 009°08'4 4.1
2017-Feb-16 04:33N 38°39' W 009°05'0 0.0
2017-Feb-16 03:33N 38°39' W 009°05'0 0.0
2017-Feb-16 02:33N 38°39' W 009°05'0 0.3
2017-Feb-16 01:34N 38°39' W 009°05'0 0.1
2017-Feb-16 00:34N 38°39' W 009°05'0 0.2
2017-Feb-15 23:34N 38°39' W 009°05'1 1.4
2017-Feb-15 22:33N 38°40' W 009°07'0 0.0
2017-Feb-15 21:33N 38°40' W 009°07'2 1.8
2017-Feb-15 20:33N 38°39' W 009°05'0 0.0
2017-Feb-15 19:33N 38°39' W 009°05'1 1.0
2017-Feb-15 18:33N 38°39' W 009°06'3 3.0
2017-Feb-15 17:33N 38°42' W 009°08'4 3.6
2017-Feb-15 16:33N 38°39' W 009°05'0 0.0
2017-Feb-15 15:33N 38°39' W 009°05'0 0.0
2017-Feb-15 14:33N 38°39' W 009°05'  
Track history (hours):
 
Tides and Currents Weather Stations Pressure Air Temp Water Temp Dewpoint Dewpoint Depression Visibility Wind Speed Wind Dir Waves Ship Positions

Fernando Pessoa

Last reported at 2017-Feb-25 13:33 UTC. Time now 2017-Feb-25 13:49 UTC.
Position N 38°39' W 009°05'.

Length 49 m.

MMSI: 263701470.

Date/timePositionNaut miles runAvg speedWind from/ knotsBaromVisibWave heightAir tempDewpointWater temp
2017-Feb-25 13:33N 38°39' W 009°05'2 1.5
2017-Feb-25 12:33N 38°40' W 009°06'0 0.2
2017-Feb-25 11:34N 38°40' W 009°06'0 0.2
2017-Feb-25 10:34N 38°40' W 009°06'0 0.3
2017-Feb-25 09:33N 38°40' W 009°06'0 0.0
2017-Feb-25 08:34N 38°40' W 009°06'0 0.2
2017-Feb-25 07:34N 38°40' W 009°06'1 1.3
2017-Feb-25 06:34N 38°41' W 009°08'2 1.7
2017-Feb-25 05:34N 38°42' W 009°08'4 4.1
2017-Feb-25 04:33N 38°39' W 009°05'0 0.0
2017-Feb-25 03:33N 38°39' W 009°05'0 0.0
2017-Feb-25 02:33N 38°39' W 009°05'0 0.2
2017-Feb-25 01:33N 38°39' W 009°05'0 0.1
2017-Feb-25 00:33N 38°39' W 009°05'0 0.0
2017-Feb-24 23:33N 38°39' W 009°05'1 1.2
2017-Feb-24 22:34N 38°40' W 009°06'0 0.1
2017-Feb-24 21:34N 38°40' W 009°07'2 1.6
2017-Feb-24 20:33N 38°39' W 009°05'0 0.0
2017-Feb-24 19:33N 38°39' W 009°05'1 1.2
2017-Feb-24 18:33N 38°40' W 009°06'3 2.8
2017-Feb-24 17:33N 38°42' W 009°08'4 3.7
2017-Feb-24 16:33N 38°39' W 009°05'0 0.0
2017-Feb-24 12:11N 38°39' W 009°05'0 0.0
2017-Feb-24 11:34N 38°39' W 009°05'0 0.0
2017-Feb-24 10:33N 38°39' W 009°05'0 0.1
2017-Feb-24 09:33N 38°39' W 009°05'1 0.8
2017-Feb-24 08:33N 38°39' W 009°06'3 3.0
2017-Feb-24 07:33N 38°42' W 009°08'0 0.5
2017-Feb-24 06:34N 38°42' W 009°08'0 0.0
2017-Feb-24 05:33N 38°42' W 009°08'4 4.1
2017-Feb-24 04:33N 38°39' W 009°05'0 0.0
2017-Feb-24 03:33N 38°39' W 009°05'0 0.0
2017-Feb-24 02:33N 38°39' W 009°05'1 0.7
2017-Feb-24 01:34N 38°39' W 009°06'0 0.2
2017-Feb-24 00:33N 38°39' W 009°05'0 0.1
2017-Feb-23 23:33N 38°39' W 009°05'1 1.2
2017-Feb-23 22:33N 38°40' W 009°07'0 0.2
2017-Feb-23 21:34N 38°40' W 009°06'1 1.5
2017-Feb-23 20:33N 38°39' W 009°05'0 0.0
2017-Feb-23 19:33N 38°39' W 009°05'1 1.0
2017-Feb-23 18:33N 38°39' W 009°06'3 3.0
2017-Feb-23 17:33N 38°42' W 009°08'4 3.7
2017-Feb-23 16:33N 38°39' W 009°05'0 0.0
2017-Feb-23 13:33N 38°39' W 009°05'1 1.4
2017-Feb-23 12:34N 38°40' W 009°06'1 0.8
2017-Feb-23 11:33N 38°39' W 009°06'1 0.7
2017-Feb-23 10:33N 38°39' W 009°05'0 0.1
2017-Feb-23 09:34N 38°39' W 009°05'0 0.0
2017-Feb-23 08:34N 38°39' W 009°05'1 1.1
2017-Feb-23 07:33N 38°40' W 009°06'1 1.0
2017-Feb-23 06:33N 38°39' W 009°05'4 0.4
2017-Feb-22 20:33N 38°42' W 009°08'0 0.2
2017-Feb-22 19:33N 38°42' W 009°08'1 0.8
2017-Feb-22 18:34N 38°42' W 009°08'3 3.0
2017-Feb-22 17:33N 38°39' W 009°05'4 3.5
2017-Feb-22 16:33N 38°42' W 009°08'2 1.7
2017-Feb-22 15:34N 38°41' W 009°08'0 0.3
2017-Feb-22 14:33N 38°41' W 009°08'1 0.6
2017-Feb-22 13:34N 38°40' W 009°08'0 0.4
2017-Feb-22 12:33N 38°41' W 009°08'0 0.0
2017-Feb-22 11:34N 38°41' W 009°08'3 2.8
2017-Feb-22 10:33N 38°39' W 009°05'4 4.2
2017-Feb-22 09:34N 38°42' W 009°08'0 0.0
2017-Feb-22 08:33N 38°42' W 009°08'2 1.9
2017-Feb-22 07:34N 38°41' W 009°08'3 2.5
2017-Feb-22 06:32N 38°39' W 009°05'0 0.0
2017-Feb-21 21:26N 38°39' W 009°05'3 3.6
2017-Feb-21 20:34N 38°42' W 009°08'1 1.5
2017-Feb-21 19:34N 38°40' W 009°07'2 2.3
2017-Feb-21 18:33N 38°42' W 009°08'0 0.1
2017-Feb-21 17:33N 38°42' W 009°08'1 1.4
2017-Feb-21 16:34N 38°41' W 009°08'1 1.2
2017-Feb-21 15:33N 38°40' W 009°07'0 0.4
2017-Feb-21 14:33N 38°40' W 009°06'0 0.2
2017-Feb-21 13:34N 38°40' W 009°07'2 1.8
2017-Feb-21 12:33N 38°39' W 009°05'0 0.0
2017-Feb-21 11:33N 38°39' W 009°05'3 3.0
2017-Feb-21 10:33N 38°41' W 009°08'3 3.0
2017-Feb-21 09:33N 38°39' W 009°05'1 1.1
2017-Feb-21 08:33N 38°40' W 009°06'3 2.8
2017-Feb-21 07:33N 38°42' W 009°08'0 0.4
2017-Feb-21 06:34N 38°42' W 009°08'1 0.6
2017-Feb-21 05:33N 38°42' W 009°08'4 3.6
2017-Feb-21 04:33N 38°39' W 009°05'0 0.0
2017-Feb-21 03:33N 38°39' W 009°05'0 0.0
2017-Feb-21 02:33N 38°39' W 009°05'0 0.4
2017-Feb-21 01:33N 38°39' W 009°05'0 0.1
2017-Feb-21 00:33N 38°39' W 009°05'0 0.1
2017-Feb-20 23:33N 38°39' W 009°05'1 0.9
2017-Feb-20 22:34N 38°40' W 009°06'0 0.4
2017-Feb-20 21:33N 38°40' W 009°07'2 1.8
2017-Feb-20 20:34N 38°39' W 009°05'0 0.0
2017-Feb-20 19:33N 38°39' W 009°05'1 1.3
2017-Feb-20 18:33N 38°40' W 009°06'3 2.8
2017-Feb-20 17:33N 38°42' W 009°08'4 3.8
2017-Feb-20 16:33N 38°39' W 009°05'0 0.0
2017-Feb-20 15:33N 38°39' W 009°05'0 0.0
2017-Feb-20 14:32N 38°39' W 009°05'0 0.0
2017-Feb-20 13:33N 38°39' W 009°05'1 1.4
2017-Feb-20 12:34N 38°40' W 009°06'0 0.1
2017-Feb-20 11:33N 38°40' W 009°06'1 1.4
2017-Feb-20 10:33N 38°39' W 009°05'0 0.0
2017-Feb-20 09:33N 38°39' W 009°05'1 1.1
2017-Feb-20 08:34N 38°40' W 009°06'1 0.6
2017-Feb-20 07:33N 38°39' W 009°06'1 0.6
2017-Feb-20 06:33N 38°39' W 009°05'0 0.0
2017-Feb-19 11:28N 38°39' W 009°05'2 1.8
2017-Feb-19 10:33N 38°40' W 009°07'0 0.1
2017-Feb-19 09:34N 38°40' W 009°07'0 0.2
2017-Feb-19 08:33N 38°40' W 009°07'0 0.1
2017-Feb-19 07:33N 38°40' W 009°07'1 0.8
2017-Feb-19 06:33N 38°40' W 009°08'2 1.5
2017-Feb-19 05:33N 38°42' W 009°08'4 3.7
2017-Feb-19 04:33N 38°39' W 009°05'0 0.0
2017-Feb-19 03:33N 38°39' W 009°05'0 0.0
2017-Feb-19 02:33N 38°39' W 009°05'0 0.5
2017-Feb-19 01:33N 38°39' W 009°05'0 0.1
2017-Feb-19 00:33N 38°39' W 009°05'0 0.1
2017-Feb-18 23:33N 38°39' W 009°05'1 1.4
2017-Feb-18 22:33N 38°40' W 009°07'0 0.0
2017-Feb-18 21:34N 38°40' W 009°07'0 0.2
2017-Feb-18 20:33N 38°40' W 009°07'1 1.1
2017-Feb-18 19:33N 38°41' W 009°08'0 0.3
2017-Feb-18 18:34N 38°40' W 009°08'0 0.1
2017-Feb-18 17:34N 38°41' W 009°08'0 0.1
2017-Feb-18 16:33N 38°41' W 009°08'0 0.2
2017-Feb-18 15:34N 38°41' W 009°08'3 2.9
2017-Feb-18 14:33N 38°39' W 009°05'0 0.0
2017-Feb-18 13:33N 38°39' W 009°05'1 1.5
2017-Feb-18 12:34N 38°40' W 009°06'0 0.4
2017-Feb-18 11:33N 38°40' W 009°06'0 0.0
2017-Feb-18 10:33N 38°40' W 009°06'1 0.5
2017-Feb-18 09:33N 38°40' W 009°07'0 0.0
2017-Feb-18 08:34N 38°40' W 009°06'0 0.1
2017-Feb-18 07:34N 38°40' W 009°07'1 1.1
2017-Feb-18 06:34N 38°41' W 009°08'2 1.9
2017-Feb-18 05:34N 38°42' W 009°08'4 4.1
2017-Feb-18 04:33N 38°39' W 009°05'0 0.0
2017-Feb-18 03:33N 38°39' W 009°05'0 0.0
2017-Feb-18 02:34N 38°39' W 009°05'1 0.5
2017-Feb-18 01:33N 38°39' W 009°05'0 0.1
2017-Feb-18 00:33N 38°39' W 009°05'0 0.1
2017-Feb-17 23:34N 38°39' W 009°05'1 1.2
2017-Feb-17 22:33N 38°40' W 009°07'0 0.1
2017-Feb-17 21:34N 38°40' W 009°07'2 1.8
2017-Feb-17 20:33N 38°39' W 009°05'0 0.0
2017-Feb-17 19:33N 38°39' W 009°05'1 1.1
2017-Feb-17 18:33N 38°40' W 009°06'3 2.9
2017-Feb-17 17:34N 38°42' W 009°08'4 3.7
2017-Feb-17 16:33N 38°39' W 009°05'0 0.0
2017-Feb-17 15:33N 38°39' W 009°05'0 0.0
2017-Feb-17 14:31N 38°39' W 009°05'0 0.0
2017-Feb-17 13:33N 38°39' W 009°05'1 1.5
2017-Feb-17 12:34N 38°40' W 009°07'0 0.2
2017-Feb-17 11:33N 38°40' W 009°06'1 1.3
2017-Feb-17 10:33N 38°39' W 009°05'0 0.0
2017-Feb-17 09:33N 38°39' W 009°05'0 0.2
2017-Feb-17 08:33N 38°39' W 009°05'1 0.9
2017-Feb-17 07:33N 38°39' W 009°06'1 1.0
2017-Feb-17 06:33N 38°39' W 009°05'0 0.0
2017-Feb-16 21:18N 38°39' W 009°05'3 4.7
2017-Feb-16 20:33N 38°42' W 009°08'2 2.2
2017-Feb-16 19:34N 38°40' W 009°06'2 2.5
2017-Feb-16 18:33N 38°42' W 009°08'1 0.5
2017-Feb-16 17:34N 38°42' W 009°08'1 1.0
2017-Feb-16 16:33N 38°41' W 009°07'2 1.8
2017-Feb-16 15:33N 38°40' W 009°06'0 0.2
2017-Feb-16 14:33N 38°40' W 009°07'0 0.4
2017-Feb-16 13:34N 38°40' W 009°06'1 1.2
2017-Feb-16 12:33N 38°39' W 009°05'0 0.0
2017-Feb-16 11:33N 38°39' W 009°05'3 2.7
2017-Feb-16 10:34N 38°41' W 009°08'3 2.8
2017-Feb-16 09:34N 38°39' W 009°05'1 1.2
2017-Feb-16 08:34N 38°40' W 009°06'3 2.6
2017-Feb-16 07:33N 38°42' W 009°08'0 0.5
2017-Feb-16 06:34N 38°42' W 009°08'0 0.0
2017-Feb-16 05:33N 38°42' W 009°08'4 4.1
2017-Feb-16 04:33N 38°39' W 009°05'0 0.0
2017-Feb-16 03:33N 38°39' W 009°05'0 0.0
2017-Feb-16 02:33N 38°39' W 009°05'0 0.3
2017-Feb-16 01:34N 38°39' W 009°05'0 0.1
2017-Feb-16 00:34N 38°39' W 009°05'0 0.2
2017-Feb-15 23:34N 38°39' W 009°05'1 1.4
2017-Feb-15 22:33N 38°40' W 009°07'0 0.0
2017-Feb-15 21:33N 38°40' W 009°07'2 1.8
2017-Feb-15 20:33N 38°39' W 009°05'0 0.0
2017-Feb-15 19:33N 38°39' W 009°05'1 1.0
2017-Feb-15 18:33N 38°39' W 009°06'3 3.0
2017-Feb-15 17:33N 38°42' W 009°08'4 3.6
2017-Feb-15 16:33N 38°39' W 009°05'0 0.0
2017-Feb-15 15:33N 38°39' W 009°05'0 0.0
2017-Feb-15 14:33N 38°39' W 009°05'  

Dump ship's entire track history